createdAt,value
2022-09-23T00:00:19.971Z,2.20
2022-09-23T00:01:20.150Z,2.20
2022-09-23T00:02:20.018Z,2.20
2022-09-23T00:03:19.966Z,2.30
2022-09-23T00:04:20.044Z,2.30
2022-09-23T00:05:19.953Z,2.20
2022-09-23T00:06:19.951Z,2.00
2022-09-23T00:07:19.947Z,2.10
2022-09-23T00:14:17.121Z,2.30
2022-09-23T00:14:31.165Z,2.30
2022-09-23T00:15:31.172Z,2.30
2022-09-23T00:16:31.195Z,2.20
2022-09-23T00:17:31.152Z,2.20
2022-09-23T00:18:31.159Z,2.30
2022-09-23T00:19:31.180Z,2.20
2022-09-23T00:20:31.151Z,2.40
2022-09-23T00:21:31.146Z,2.30
2022-09-23T00:22:31.145Z,2.10
2022-09-23T00:23:31.141Z,2.40
2022-09-23T00:24:31.138Z,2.20
2022-09-23T00:25:31.136Z,2.30
2022-09-23T00:26:31.129Z,2.40
2022-09-23T00:27:31.920Z,2.40
2022-09-23T00:28:31.122Z,2.30
2022-09-23T00:29:31.116Z,2.40
2022-09-23T00:30:31.253Z,2.20
2022-09-23T00:31:31.104Z,2.20
2022-09-23T00:32:31.111Z,2.20
2022-09-23T00:33:31.103Z,2.40
2022-09-23T00:34:31.091Z,2.40
2022-09-23T00:35:31.105Z,2.60
2022-09-23T00:36:31.084Z,2.50
2022-09-23T00:37:31.086Z,2.50
2022-09-23T00:38:31.083Z,2.40
2022-09-23T00:39:31.085Z,2.60
2022-09-23T00:40:31.138Z,2.70
2022-09-23T00:41:31.069Z,2.60
2022-09-23T00:42:31.065Z,2.40
2022-09-23T00:43:31.071Z,2.50
2022-09-23T00:44:31.409Z,2.30
2022-09-23T00:45:31.059Z,2.60
2022-09-23T00:46:31.128Z,2.60
2022-09-23T00:47:31.051Z,2.60
2022-09-23T00:48:31.045Z,2.60
2022-09-23T00:49:31.057Z,2.30
2022-09-23T00:50:31.041Z,2.70
2022-09-23T00:51:31.190Z,2.60
2022-09-23T00:52:31.035Z,2.60
2022-09-23T00:53:31.033Z,2.80
2022-09-23T00:54:31.028Z,2.70
2022-09-23T00:55:31.025Z,2.70
2022-09-23T00:56:31.022Z,2.40
2022-09-23T00:57:31.033Z,2.40
2022-09-23T00:58:31.015Z,2.50
2022-09-23T00:59:31.015Z,2.60
2022-09-23T01:00:31.009Z,2.70
2022-09-23T01:01:31.178Z,2.50
2022-09-23T01:02:31.029Z,2.80
2022-09-23T01:03:31.000Z,2.60
2022-09-23T01:04:30.996Z,2.50
2022-09-23T01:05:30.993Z,2.60
2022-09-23T01:06:30.987Z,2.40
2022-09-23T01:07:31.006Z,2.60
2022-09-23T01:08:30.983Z,2.50
2022-09-23T01:09:30.984Z,2.60
2022-09-23T01:10:30.978Z,2.60
2022-09-23T01:11:30.980Z,2.50
2022-09-23T01:12:30.971Z,2.50
2022-09-23T01:13:30.969Z,2.60
2022-09-23T01:14:30.964Z,2.40
2022-09-23T01:15:30.965Z,2.30
2022-09-23T01:16:30.999Z,2.20
2022-09-23T01:17:30.954Z,2.60
2022-09-23T01:18:30.949Z,2.50
2022-09-23T01:19:30.947Z,2.50
2022-09-23T01:20:30.965Z,2.40
2022-09-23T01:21:30.944Z,2.30
2022-09-23T01:22:30.942Z,2.50
2022-09-23T01:23:30.952Z,2.40
2022-09-23T01:24:30.930Z,2.30
2022-09-23T01:25:30.927Z,2.50
2022-09-23T01:26:30.922Z,2.30
2022-09-23T01:27:30.920Z,2.50
2022-09-23T01:28:30.916Z,2.40
2022-09-23T01:29:30.915Z,2.40
2022-09-23T01:30:30.932Z,2.50
2022-09-23T01:31:30.909Z,2.40
2022-09-23T01:32:30.903Z,2.50
2022-09-23T01:33:30.907Z,2.10
2022-09-23T01:34:30.896Z,2.40
2022-09-23T01:35:30.894Z,2.20
2022-09-23T01:36:30.890Z,2.20
2022-09-23T01:37:30.892Z,2.60
2022-09-23T01:38:30.885Z,2.50
2022-09-23T01:39:30.904Z,2.30
2022-09-23T01:40:30.927Z,2.40
2022-09-23T01:41:30.877Z,2.20
2022-09-23T01:42:30.874Z,2.30
2022-09-23T01:43:30.869Z,2.30
2022-09-23T01:44:30.866Z,2.40
2022-09-23T01:45:30.869Z,2.60
2022-09-23T01:46:30.868Z,2.60
2022-09-23T01:47:30.854Z,2.70
2022-09-23T01:48:30.922Z,2.40
2022-09-23T01:49:30.851Z,2.60
2022-09-23T01:50:30.848Z,2.50
2022-09-23T01:51:30.842Z,2.60
2022-09-23T01:52:30.838Z,2.40
2022-09-23T01:53:30.838Z,2.50
2022-09-23T01:54:30.834Z,2.50
2022-09-23T01:55:30.854Z,2.30
2022-09-23T01:56:30.831Z,2.40
2022-09-23T01:57:30.824Z,2.60
2022-09-23T01:58:30.818Z,2.80
2022-09-23T01:59:30.821Z,2.40
2022-09-23T02:00:30.814Z,2.70
2022-09-23T02:01:30.922Z,2.20
2022-09-23T02:02:30.857Z,2.60
2022-09-23T02:03:30.802Z,2.40
2022-09-23T02:04:30.802Z,2.80
2022-09-23T02:05:30.797Z,2.70
2022-09-23T02:06:30.791Z,2.80
2022-09-23T02:07:30.794Z,2.60
2022-09-23T02:08:30.783Z,2.80
2022-09-23T02:09:30.785Z,2.80
2022-09-23T02:10:30.779Z,2.50
2022-09-23T02:11:30.796Z,2.80
2022-09-23T02:12:30.778Z,2.70
2022-09-23T02:13:30.886Z,2.50
2022-09-23T02:14:30.769Z,2.80
2022-09-23T02:15:30.763Z,2.40
2022-09-23T02:16:30.790Z,2.40
2022-09-23T02:17:30.758Z,2.60
2022-09-23T02:18:30.752Z,2.60
2022-09-23T02:19:30.751Z,2.60
2022-09-23T02:20:30.748Z,2.30
2022-09-23T02:21:30.743Z,2.10
2022-09-23T02:22:30.742Z,2.40
2022-09-23T02:23:30.738Z,2.00
2022-09-23T02:24:30.735Z,2.10
2022-09-23T02:25:30.734Z,2.00
2022-09-23T02:26:30.728Z,2.20
2022-09-23T02:27:30.742Z,2.20
2022-09-23T02:28:30.724Z,2.20
2022-09-23T02:29:30.721Z,2.20
2022-09-23T02:30:30.715Z,2.20
2022-09-23T02:31:30.770Z,2.50
2022-09-23T02:32:30.707Z,2.60
2022-09-23T02:33:30.708Z,2.80
2022-09-23T02:34:30.705Z,2.60
2022-09-23T02:35:30.696Z,2.60
2022-09-23T02:36:30.693Z,2.40
2022-09-23T02:37:30.694Z,2.10
2022-09-23T02:38:30.686Z,2.20
2022-09-23T02:39:30.685Z,2.10
2022-09-23T02:40:30.733Z,2.10
2022-09-23T02:41:30.676Z,2.10
2022-09-23T02:42:30.673Z,2.00
2022-09-23T02:43:30.692Z,2.20
2022-09-23T02:44:30.667Z,2.00
2022-09-23T02:45:30.718Z,2.00
2022-09-23T02:46:30.659Z,2.20
2022-09-23T02:47:30.656Z,2.30
2022-09-23T02:48:30.654Z,2.50
2022-09-23T02:49:31.015Z,2.30
2022-09-23T02:50:30.647Z,2.40
2022-09-23T02:51:30.646Z,2.30
2022-09-23T02:52:30.639Z,2.50
2022-09-23T02:53:30.641Z,2.20
2022-09-23T02:54:30.636Z,2.20
2022-09-23T02:55:30.632Z,2.20
2022-09-23T02:56:30.633Z,2.10
2022-09-23T02:57:30.622Z,2.10
2022-09-23T02:58:30.621Z,2.00
2022-09-23T02:59:30.639Z,2.30
2022-09-23T03:00:30.613Z,2.20
2022-09-23T03:01:30.668Z,2.00
2022-09-23T03:02:30.688Z,2.10
2022-09-23T03:03:30.604Z,2.20
2022-09-23T03:04:30.599Z,2.30
2022-09-23T03:05:30.606Z,2.20
2022-09-23T03:06:30.597Z,2.30
2022-09-23T03:07:30.593Z,2.40
2022-09-23T03:08:30.591Z,2.30
2022-09-23T03:09:30.584Z,2.20
2022-09-23T03:10:30.585Z,2.10
2022-09-23T03:11:30.577Z,2.20
2022-09-23T03:12:30.571Z,2.40
2022-09-23T03:13:30.570Z,2.40
2022-09-23T03:14:30.567Z,2.30
2022-09-23T03:15:30.584Z,2.50
2022-09-23T03:16:30.573Z,2.70
2022-09-23T03:17:30.559Z,2.50
2022-09-23T03:18:30.556Z,2.50
2022-09-23T03:19:30.549Z,2.60
2022-09-23T03:20:30.544Z,2.80
2022-09-23T03:21:30.546Z,2.50
2022-09-23T03:22:30.545Z,2.70
2022-09-23T03:23:30.544Z,2.60
2022-09-23T03:24:30.539Z,2.30
2022-09-23T03:25:30.530Z,2.60
2022-09-23T03:26:30.526Z,2.40
2022-09-23T03:27:30.522Z,2.60
2022-09-23T03:28:30.515Z,2.30
2022-09-23T03:29:30.513Z,2.40
2022-09-23T03:30:30.510Z,2.40
2022-09-23T03:31:30.593Z,2.60
2022-09-23T03:32:30.505Z,2.50
2022-09-23T03:33:30.509Z,2.50
2022-09-23T03:34:30.494Z,2.30
2022-09-23T03:35:30.496Z,2.60
2022-09-23T03:36:30.496Z,2.30
2022-09-23T03:37:30.491Z,2.30
2022-09-23T03:38:30.485Z,2.20
2022-09-23T03:39:30.479Z,2.20
2022-09-23T03:40:30.576Z,2.30
2022-09-23T03:41:30.472Z,2.30
2022-09-23T03:42:30.467Z,2.20
2022-09-23T03:43:30.466Z,2.10
2022-09-23T03:44:30.460Z,2.20
2022-09-23T03:45:30.521Z,2.30
2022-09-23T03:46:30.457Z,2.00
2022-09-23T03:47:30.468Z,2.20
2022-09-23T03:48:30.445Z,2.40
2022-09-23T03:49:30.444Z,2.20
2022-09-23T03:50:30.441Z,2.10
2022-09-23T03:51:30.436Z,2.10
2022-09-23T03:52:30.434Z,2.10
2022-09-23T03:53:30.430Z,2.00
2022-09-23T03:54:30.431Z,2.10
2022-09-23T03:55:30.429Z,2.30
2022-09-23T03:56:30.423Z,2.20
2022-09-23T03:57:30.420Z,2.20
2022-09-23T03:58:30.469Z,2.30
2022-09-23T03:59:30.431Z,2.30
2022-09-23T04:00:30.403Z,2.50
2022-09-23T04:01:30.414Z,2.50
2022-09-23T04:02:30.487Z,2.30
2022-09-23T04:03:30.533Z,2.10
2022-09-23T04:04:30.391Z,2.20
2022-09-23T04:05:30.390Z,1.90
2022-09-23T04:06:30.386Z,2.00
2022-09-23T04:07:30.383Z,2.30
2022-09-23T04:08:30.378Z,2.20
2022-09-23T04:09:30.378Z,2.30
2022-09-23T04:10:30.378Z,2.30
2022-09-23T04:11:30.365Z,2.30
2022-09-23T04:12:30.362Z,2.30
2022-09-23T04:13:30.358Z,2.40
2022-09-23T04:14:30.357Z,2.50
2022-09-23T04:15:30.355Z,2.20
2022-09-23T04:16:30.420Z,2.00
2022-09-23T04:17:30.348Z,2.40
2022-09-23T04:18:30.344Z,2.20
2022-09-23T04:19:30.370Z,2.50
2022-09-23T04:20:30.338Z,2.40
2022-09-23T04:21:30.336Z,2.30
2022-09-23T04:22:30.326Z,2.30
2022-09-23T04:23:30.325Z,2.30
2022-09-23T04:24:30.327Z,2.00
2022-09-23T04:25:30.328Z,2.30
2022-09-23T04:26:30.311Z,2.30
2022-09-23T04:27:34.220Z,2.40
2022-09-23T04:28:30.308Z,2.10
2022-09-23T04:29:30.304Z,2.20
2022-09-23T04:30:30.305Z,2.20
2022-09-23T04:31:30.369Z,2.20
2022-09-23T04:32:30.298Z,2.20
2022-09-23T04:33:30.289Z,2.20
2022-09-23T04:34:30.288Z,2.20
2022-09-23T04:35:30.304Z,2.30
2022-09-23T04:36:30.289Z,2.50
2022-09-23T04:37:30.275Z,2.40
2022-09-23T04:38:30.277Z,2.20
2022-09-23T04:39:30.267Z,2.40
2022-09-23T04:40:30.374Z,2.40
2022-09-23T04:41:30.263Z,2.30
2022-09-23T04:42:30.260Z,2.40
2022-09-23T04:43:30.254Z,2.30
2022-09-23T04:44:30.256Z,2.30
2022-09-23T04:45:30.252Z,2.00
2022-09-23T04:46:30.265Z,2.60
2022-09-23T04:47:30.237Z,2.60
2022-09-23T04:48:30.239Z,2.30
2022-09-23T04:49:30.383Z,2.40
2022-09-23T04:50:30.229Z,2.50
2022-09-23T04:51:30.246Z,2.70
2022-09-23T04:52:30.225Z,2.10
2022-09-23T04:53:30.217Z,2.10
2022-09-23T04:54:30.216Z,2.10
2022-09-23T04:55:30.214Z,2.10
2022-09-23T04:56:30.209Z,2.10
2022-09-23T04:57:30.203Z,2.20
2022-09-23T04:58:30.200Z,1.90
2022-09-23T04:59:30.196Z,2.10
2022-09-23T05:00:30.257Z,2.30
2022-09-23T05:01:30.296Z,2.30
2022-09-23T05:02:30.282Z,2.30
2022-09-23T05:03:30.180Z,2.30
2022-09-23T05:04:30.181Z,2.20
2022-09-23T05:05:30.174Z,2.30
2022-09-23T05:06:30.175Z,2.30
2022-09-23T05:07:30.193Z,2.10
2022-09-23T05:08:30.165Z,2.50
2022-09-23T05:09:30.164Z,2.40
2022-09-23T05:10:30.185Z,2.40
2022-09-23T05:11:30.152Z,2.50
2022-09-23T05:12:30.150Z,2.50
2022-09-23T05:13:30.144Z,2.60
2022-09-23T05:14:30.142Z,2.50
2022-09-23T05:15:30.137Z,2.80
2022-09-23T05:16:30.257Z,2.40
2022-09-23T05:17:30.133Z,2.60
2022-09-23T05:18:30.127Z,2.70
2022-09-23T05:19:30.123Z,2.40
2022-09-23T05:20:30.120Z,2.40
2022-09-23T05:21:30.116Z,2.40
2022-09-23T05:22:30.117Z,2.40
2022-09-23T05:23:30.148Z,2.50
2022-09-23T05:24:30.113Z,2.30
2022-09-23T05:25:30.100Z,2.40
2022-09-23T05:26:30.104Z,2.50
2022-09-23T05:27:30.091Z,2.50
2022-09-23T05:28:30.089Z,2.40
2022-09-23T05:29:30.086Z,2.60
2022-09-23T05:30:30.081Z,2.90
2022-09-23T05:31:30.206Z,2.80
2022-09-23T05:32:30.076Z,2.90
2022-09-23T05:33:30.077Z,2.50
2022-09-23T05:34:30.072Z,2.40
2022-09-23T05:35:30.062Z,2.30
2022-09-23T05:36:33.211Z,2.40
2022-09-23T05:37:30.054Z,2.50
2022-09-23T05:38:30.052Z,2.70
2022-09-23T05:39:30.063Z,2.60
2022-09-23T05:40:30.108Z,2.40
2022-09-23T05:41:30.042Z,3.00
2022-09-23T05:42:30.145Z,3.10
2022-09-23T05:43:30.092Z,3.00
2022-09-23T05:44:30.039Z,2.80
2022-09-23T05:45:30.031Z,3.20
2022-09-23T05:46:30.106Z,3.40
2022-09-23T05:47:30.016Z,3.30
2022-09-23T05:48:30.012Z,3.40
2022-09-23T05:49:48.607Z,3.50
2022-09-23T05:50:30.011Z,3.70
2022-09-23T05:51:31.114Z,3.50
2022-09-23T05:52:29.999Z,3.60
2022-09-23T05:53:29.995Z,3.40
2022-09-23T05:54:29.995Z,3.30
2022-09-23T05:55:30.011Z,3.30
2022-09-23T05:56:29.984Z,3.40
2022-09-23T05:57:29.984Z,3.30
2022-09-23T05:58:29.978Z,3.50
2022-09-23T05:59:29.971Z,3.00
2022-09-23T06:00:29.976Z,3.40
2022-09-23T06:01:30.050Z,3.60
2022-09-23T06:02:30.124Z,3.60
2022-09-23T06:03:29.965Z,3.90
2022-09-23T06:04:29.966Z,3.90
2022-09-23T06:05:29.954Z,3.80
2022-09-23T06:06:29.951Z,3.80
2022-09-23T06:07:29.942Z,3.90
2022-09-23T06:08:29.945Z,3.70
2022-09-23T06:09:34.121Z,4.20
2022-09-23T06:10:29.932Z,3.80
2022-09-23T06:11:29.947Z,3.60
2022-09-23T06:12:29.930Z,3.70
2022-09-23T06:13:29.923Z,3.30
2022-09-23T06:14:29.919Z,3.60
2022-09-23T06:15:29.913Z,3.60
2022-09-23T06:16:30.005Z,3.60
2022-09-23T06:17:29.905Z,3.50
2022-09-23T06:18:29.906Z,3.80
2022-09-23T06:19:29.902Z,3.70
2022-09-23T06:20:29.895Z,3.90
2022-09-23T06:21:29.894Z,3.30
2022-09-23T06:22:29.889Z,3.50
2022-09-23T06:23:29.884Z,4.00
2022-09-23T06:24:31.644Z,3.90
2022-09-23T06:25:29.885Z,3.90
2022-09-23T06:26:29.875Z,4.20
2022-09-23T06:27:29.889Z,4.20
2022-09-23T06:28:29.869Z,3.90
2022-09-23T06:29:29.860Z,3.90
2022-09-23T06:30:29.862Z,3.90
2022-09-23T06:31:29.924Z,3.90
2022-09-23T06:32:29.853Z,4.10
2022-09-23T06:33:36.831Z,3.80
2022-09-23T06:34:31.309Z,3.90
2022-09-23T06:35:29.839Z,3.90
2022-09-23T06:36:40.642Z,3.80
2022-09-23T06:37:29.840Z,4.10
2022-09-23T06:38:29.834Z,4.20
2022-09-23T06:39:29.824Z,4.30
2022-09-23T06:40:29.898Z,4.20
2022-09-23T06:41:29.819Z,4.20
2022-09-23T06:42:29.816Z,4.20
2022-09-23T06:43:29.829Z,4.20
2022-09-23T06:44:29.808Z,4.60
2022-09-23T06:45:29.806Z,4.40
2022-09-23T06:46:29.839Z,4.60
2022-09-23T06:47:29.799Z,4.70
2022-09-23T06:48:29.798Z,4.40
2022-09-23T06:49:29.790Z,4.60
2022-09-23T06:50:29.790Z,4.80
2022-09-23T06:51:29.781Z,5.00
2022-09-23T06:52:29.782Z,4.90
2022-09-23T06:53:29.777Z,5.00
2022-09-23T06:54:29.775Z,5.30
2022-09-23T06:55:29.769Z,5.70
2022-09-23T06:56:33.487Z,5.70
2022-09-23T06:57:29.762Z,5.50
2022-09-23T06:58:29.765Z,5.80
2022-09-23T06:59:29.777Z,6.10
2022-09-23T07:00:29.753Z,5.70
2022-09-23T07:01:29.917Z,5.80
2022-09-23T07:02:29.891Z,5.70
2022-09-23T07:03:29.744Z,6.00
2022-09-23T07:04:29.739Z,6.10
2022-09-23T07:05:29.738Z,6.30
2022-09-23T07:06:29.733Z,5.60
2022-09-23T07:07:29.728Z,6.00
2022-09-23T07:08:29.731Z,5.80
2022-09-23T07:09:29.727Z,6.10
2022-09-23T07:10:29.733Z,6.30
2022-09-23T07:11:29.718Z,6.50
2022-09-23T07:12:29.712Z,5.80
2022-09-23T07:13:29.711Z,6.00
2022-09-23T07:14:29.710Z,5.80
2022-09-23T07:15:29.722Z,6.20
2022-09-23T07:16:29.790Z,5.70
2022-09-23T07:17:29.701Z,5.80
2022-09-23T07:18:34.252Z,6.20
2022-09-23T07:19:29.692Z,6.00
2022-09-23T07:20:29.695Z,5.60
2022-09-23T07:21:29.686Z,6.00
2022-09-23T07:22:29.684Z,5.60
2022-09-23T07:23:29.679Z,5.90
2022-09-23T07:24:29.677Z,6.00
2022-09-23T07:25:29.779Z,5.60
2022-09-23T07:26:29.676Z,5.60
2022-09-23T07:27:29.669Z,5.80
2022-09-23T07:28:29.669Z,5.60
2022-09-23T07:29:35.952Z,6.40
2022-09-23T07:30:29.663Z,5.60
2022-09-23T07:31:38.664Z,5.90
2022-09-23T07:32:38.571Z,6.00
2022-09-23T07:33:32.430Z,5.70
2022-09-23T07:34:29.653Z,5.60
2022-09-23T07:35:29.651Z,5.40
2022-09-23T07:36:29.649Z,5.10
2022-09-23T07:37:29.643Z,5.20
2022-09-23T07:38:29.643Z,5.20
2022-09-23T07:39:29.639Z,5.10
2022-09-23T07:40:29.703Z,5.50
2022-09-23T07:41:29.635Z,5.10
2022-09-23T07:42:29.632Z,4.70
2022-09-23T07:43:29.630Z,5.40
2022-09-23T07:44:29.632Z,5.00
2022-09-23T07:45:29.625Z,4.70
2022-09-23T07:46:29.816Z,4.70
2022-09-23T07:47:29.661Z,4.70
2022-09-23T07:48:33.864Z,4.80
2022-09-23T07:49:29.614Z,4.60
2022-09-23T07:50:29.618Z,4.30
2022-09-23T07:51:33.385Z,4.50
2022-09-23T07:52:29.608Z,4.30
2022-09-23T07:53:29.602Z,4.00
2022-09-23T07:54:29.599Z,3.80
2022-09-23T07:55:29.596Z,3.50
2022-09-23T07:56:29.596Z,3.90
2022-09-23T07:57:29.592Z,3.80
2022-09-23T07:58:29.593Z,4.30
2022-09-23T07:59:29.588Z,4.60
2022-09-23T08:00:29.587Z,4.30
2022-09-23T08:01:29.764Z,4.00
2022-09-23T08:02:29.653Z,3.90
2022-09-23T08:03:29.609Z,4.10
2022-09-23T08:04:29.579Z,4.10
2022-09-23T08:05:29.586Z,4.30
2022-09-23T08:06:29.575Z,3.90
2022-09-23T08:07:29.567Z,4.40
2022-09-23T08:08:29.564Z,4.30
2022-09-23T08:09:29.562Z,4.00
2022-09-23T08:10:29.563Z,4.00
2022-09-23T08:11:29.557Z,3.80
2022-09-23T08:12:29.556Z,4.30
2022-09-23T08:13:29.552Z,4.00
2022-09-23T08:14:29.551Z,4.20
2022-09-23T08:15:29.587Z,3.80
2022-09-23T08:16:29.620Z,4.10
2022-09-23T08:17:29.543Z,4.00
2022-09-23T08:18:29.544Z,4.10
2022-09-23T08:19:29.554Z,3.80
2022-09-23T08:20:29.541Z,4.00
2022-09-23T08:21:29.535Z,4.10
2022-09-23T08:22:29.533Z,3.90
2022-09-23T08:23:29.530Z,4.00
2022-09-23T08:24:29.541Z,3.90
2022-09-23T08:25:32.175Z,4.00
2022-09-23T08:26:29.521Z,4.10
2022-09-23T08:27:29.516Z,3.90
2022-09-23T08:28:29.517Z,4.40
2022-09-23T08:29:29.555Z,4.40
2022-09-23T08:30:29.519Z,3.80
2022-09-23T08:31:29.548Z,3.90
2022-09-23T08:32:29.509Z,4.10
2022-09-23T08:33:29.505Z,4.00
2022-09-23T08:34:29.503Z,3.70
2022-09-23T08:35:29.518Z,3.70
2022-09-23T08:36:29.500Z,4.00
2022-09-23T08:37:29.496Z,4.10
2022-09-23T08:38:29.494Z,4.00
2022-09-23T08:39:29.490Z,4.00
2022-09-23T08:40:29.526Z,3.70
2022-09-23T08:41:29.486Z,3.90
2022-09-23T08:42:29.500Z,3.90
2022-09-23T08:43:29.483Z,4.00
2022-09-23T08:44:29.482Z,4.00
2022-09-23T08:45:29.482Z,3.70
2022-09-23T08:46:29.544Z,3.80
2022-09-23T08:47:29.477Z,3.60
2022-09-23T08:48:29.477Z,3.80
2022-09-23T08:49:29.472Z,3.70
2022-09-23T08:50:29.480Z,3.60
2022-09-23T08:51:29.482Z,3.80
2022-09-23T08:52:29.459Z,3.80
2022-09-23T08:53:29.469Z,4.30
2022-09-23T08:54:29.456Z,3.70
2022-09-23T08:55:29.463Z,3.90
2022-09-23T08:56:29.451Z,4.10
2022-09-23T08:57:29.452Z,4.00
2022-09-23T08:58:29.449Z,4.10
2022-09-23T08:59:29.447Z,3.60
2022-09-23T09:00:29.442Z,3.60
2022-09-23T09:01:29.481Z,3.60
2022-09-23T09:02:29.456Z,3.70
2022-09-23T09:03:29.437Z,3.80
2022-09-23T09:04:29.437Z,3.80
2022-09-23T09:05:29.435Z,3.80
2022-09-23T09:06:29.443Z,3.70
2022-09-23T09:07:36.745Z,4.00
2022-09-23T09:08:29.430Z,3.70
2022-09-23T09:09:29.424Z,3.50
2022-09-23T09:10:29.424Z,3.50
2022-09-23T09:11:29.420Z,3.40
2022-09-23T09:12:29.416Z,3.60
2022-09-23T09:13:29.418Z,3.20
2022-09-23T09:14:29.413Z,3.60
2022-09-23T09:15:29.535Z,3.50
2022-09-23T09:16:55.613Z,3.50
2022-09-23T09:17:33.012Z,3.40
2022-09-23T09:18:29.406Z,3.60
2022-09-23T09:19:29.405Z,3.20
2022-09-23T09:20:29.406Z,3.40
2022-09-23T09:21:29.399Z,3.30
2022-09-23T09:22:29.470Z,3.50
2022-09-23T09:23:29.420Z,3.50
2022-09-23T09:24:29.392Z,3.20
2022-09-23T09:25:33.512Z,3.30
2022-09-23T09:26:29.396Z,3.60
2022-09-23T09:27:29.389Z,3.80
2022-09-23T09:28:29.383Z,3.60
2022-09-23T09:29:36.762Z,3.80
2022-09-23T09:30:29.381Z,3.60
2022-09-23T09:31:29.468Z,3.50
2022-09-23T09:32:29.377Z,3.50
2022-09-23T09:33:29.376Z,3.50
2022-09-23T09:34:29.372Z,3.40
2022-09-23T09:35:29.369Z,3.50
2022-09-23T09:36:30.929Z,3.80
2022-09-23T09:37:31.632Z,3.90
2022-09-23T09:38:29.376Z,3.60
2022-09-23T09:39:29.440Z,3.60
2022-09-23T09:40:29.406Z,3.30
2022-09-23T09:41:29.359Z,3.40
2022-09-23T09:42:29.356Z,3.80
2022-09-23T09:43:32.251Z,3.60
2022-09-23T09:44:29.350Z,3.20
2022-09-23T09:45:29.350Z,3.50
2022-09-23T09:46:29.485Z,3.50
2022-09-23T09:47:29.348Z,3.50
2022-09-23T09:48:29.343Z,3.40
2022-09-23T09:49:29.352Z,3.20
2022-09-23T09:50:29.343Z,3.30
2022-09-23T09:51:29.339Z,3.40
2022-09-23T09:52:29.337Z,3.60
2022-09-23T09:53:29.279Z,3.50
2022-09-23T09:54:29.277Z,3.30
2022-09-23T09:55:29.314Z,3.50
2022-09-23T09:56:29.273Z,3.30
2022-09-23T09:57:32.225Z,3.30
2022-09-23T09:58:29.328Z,3.40
2022-09-23T09:59:29.343Z,3.50
2022-09-23T10:00:29.270Z,3.00
2022-09-23T10:01:29.339Z,3.70
2022-09-23T10:02:29.271Z,3.60
2022-09-23T10:03:29.258Z,3.40
2022-09-23T10:04:29.274Z,3.60
2022-09-23T10:05:29.259Z,3.50
2022-09-23T10:06:29.255Z,3.40
2022-09-23T10:07:29.249Z,3.20
2022-09-23T10:08:29.251Z,3.40
2022-09-23T10:09:29.247Z,3.30
2022-09-23T10:10:32.998Z,3.20
2022-09-23T10:11:29.259Z,3.10
2022-09-23T10:12:29.238Z,3.00
2022-09-23T10:13:29.238Z,3.10
2022-09-23T10:14:29.234Z,3.50
2022-09-23T10:15:29.235Z,3.30
2022-09-23T10:16:29.259Z,3.30
2022-09-23T10:17:29.227Z,3.00
2022-09-23T10:18:29.223Z,3.10
2022-09-23T10:19:29.230Z,2.80
2022-09-23T10:20:29.225Z,3.00
2022-09-23T10:21:29.219Z,2.90
2022-09-23T10:22:29.218Z,2.70
2022-09-23T10:23:29.215Z,2.90
2022-09-23T10:24:29.213Z,3.00
2022-09-23T10:25:29.212Z,3.00
2022-09-23T10:26:29.209Z,2.70
2022-09-23T10:27:29.292Z,2.70
2022-09-23T10:28:29.205Z,2.60
2022-09-23T10:29:29.213Z,2.70
2022-09-23T10:30:29.290Z,2.90
2022-09-23T10:31:29.203Z,2.90
2022-09-23T10:32:29.200Z,2.70
2022-09-23T10:33:29.199Z,2.80
2022-09-23T10:34:29.195Z,2.90
2022-09-23T10:35:29.196Z,3.20
2022-09-23T10:36:29.193Z,3.00
2022-09-23T10:37:29.193Z,2.90
2022-09-23T10:38:29.195Z,3.10
2022-09-23T10:39:29.194Z,3.10
2022-09-23T10:40:29.226Z,3.20
2022-09-23T10:41:29.192Z,3.00
2022-09-23T10:42:29.187Z,2.90
2022-09-23T10:43:29.204Z,2.70
2022-09-23T10:44:29.182Z,2.70
2022-09-23T10:45:29.185Z,2.90
2022-09-23T10:46:29.225Z,3.00
2022-09-23T10:47:29.178Z,2.70
2022-09-23T10:48:29.178Z,3.10
2022-09-23T10:49:29.179Z,3.00
2022-09-23T10:50:29.180Z,3.00
2022-09-23T10:51:29.178Z,3.20
2022-09-23T10:52:29.176Z,3.10
2022-09-23T10:53:29.175Z,3.00
2022-09-23T10:54:29.171Z,2.90
2022-09-23T10:55:29.171Z,2.90
2022-09-23T10:56:29.167Z,2.90
2022-09-23T10:57:29.167Z,2.80
2022-09-23T10:58:29.170Z,3.30
2022-09-23T10:59:29.312Z,3.00
2022-09-23T11:00:29.164Z,3.10
2022-09-23T11:01:29.265Z,2.90
2022-09-23T11:02:29.165Z,2.80
2022-09-23T11:03:29.170Z,3.20
2022-09-23T11:04:29.597Z,3.20
2022-09-23T11:05:29.168Z,3.00
2022-09-23T11:06:29.159Z,2.80
2022-09-23T11:07:30.383Z,3.00
2022-09-23T11:08:29.153Z,2.90
2022-09-23T11:09:29.152Z,3.10
2022-09-23T11:10:45.419Z,3.10
2022-09-23T11:11:29.154Z,3.10
2022-09-23T11:12:29.148Z,2.90
2022-09-23T11:13:29.146Z,3.00
2022-09-23T11:14:29.146Z,3.10
2022-09-23T11:15:29.164Z,2.80
2022-09-23T11:16:29.188Z,3.10
2022-09-23T11:17:29.147Z,2.80
2022-09-23T11:18:29.144Z,3.00
2022-09-23T11:19:29.141Z,2.90
2022-09-23T11:20:29.140Z,3.20
2022-09-23T11:21:29.143Z,3.00
2022-09-23T11:22:29.141Z,2.90
2022-09-23T11:23:29.139Z,2.70
2022-09-23T11:24:29.135Z,2.90
2022-09-23T11:25:29.138Z,3.10
2022-09-23T11:26:32.874Z,2.90
2022-09-23T11:27:29.136Z,2.80
2022-09-23T11:28:29.129Z,2.90
2022-09-23T11:29:29.134Z,2.90
2022-09-23T11:30:29.156Z,2.60
2022-09-23T11:31:29.143Z,2.50
2022-09-23T11:32:29.124Z,3.40
2022-09-23T11:33:29.125Z,3.20
2022-09-23T11:34:29.134Z,3.10
2022-09-23T11:35:29.124Z,3.00
2022-09-23T11:36:29.138Z,2.80
2022-09-23T11:37:29.147Z,3.20
2022-09-23T11:38:29.135Z,3.00
2022-09-23T11:39:29.123Z,3.10
2022-09-23T11:40:29.147Z,3.00
2022-09-23T11:41:29.118Z,3.20
2022-09-23T11:42:29.111Z,3.00
2022-09-23T11:43:29.116Z,3.00
2022-09-23T11:44:29.113Z,3.20
2022-09-23T11:45:29.109Z,3.40
2022-09-23T11:46:29.226Z,2.80
2022-09-23T11:47:29.123Z,3.10
2022-09-23T11:48:29.107Z,3.10
2022-09-23T11:49:29.105Z,3.10
2022-09-23T11:50:29.100Z,3.10
2022-09-23T11:51:29.104Z,3.00
2022-09-23T11:52:29.099Z,3.30
2022-09-23T11:53:29.100Z,3.50
2022-09-23T11:54:29.099Z,3.70
2022-09-23T11:55:29.097Z,3.70
2022-09-23T11:56:35.309Z,3.90
2022-09-23T11:57:36.952Z,3.30
2022-09-23T11:58:29.151Z,3.70
2022-09-23T11:59:38.186Z,3.70
2022-09-23T12:00:29.088Z,3.40
2022-09-23T12:01:36.779Z,3.60
2022-09-23T12:02:31.100Z,3.50
2022-09-23T12:03:41.399Z,3.90
2022-09-23T12:04:30.173Z,3.50
2022-09-23T12:05:29.286Z,3.80
2022-09-23T12:06:29.078Z,3.60
2022-09-23T12:07:29.098Z,3.90
2022-09-23T12:08:29.081Z,3.60
2022-09-23T12:09:53.872Z,3.60
2022-09-23T12:10:29.081Z,3.40
2022-09-23T12:11:29.075Z,3.40
2022-09-23T12:12:29.077Z,2.90
2022-09-23T12:13:29.074Z,3.30
2022-09-23T12:14:29.076Z,3.40
2022-09-23T12:15:29.073Z,2.90
2022-09-23T12:16:29.118Z,3.50
2022-09-23T12:17:29.071Z,3.30
2022-09-23T12:18:29.091Z,2.80
2022-09-23T12:19:29.150Z,3.00
2022-09-23T12:20:29.062Z,3.10
2022-09-23T12:21:49.151Z,2.80
2022-09-23T12:22:29.062Z,3.00
2022-09-23T12:23:29.060Z,3.00
2022-09-23T12:24:29.061Z,2.50
2022-09-23T12:25:29.057Z,2.90
2022-09-23T12:26:29.054Z,2.70
2022-09-23T12:27:29.054Z,2.80
2022-09-23T12:28:29.058Z,2.70
2022-09-23T12:30:29.130Z,2.70
2022-09-23T12:31:29.049Z,2.80
2022-09-23T12:32:29.059Z,3.10
2022-09-23T12:33:29.047Z,2.80
2022-09-23T12:34:29.048Z,2.80
2022-09-23T12:35:29.063Z,2.90
2022-09-23T12:36:29.046Z,2.90
2022-09-23T12:37:29.041Z,2.80
2022-09-23T12:38:29.039Z,3.10
2022-09-23T12:39:29.041Z,3.00
2022-09-23T12:40:29.072Z,2.70
2022-09-23T12:41:29.039Z,2.90
2022-09-23T12:42:31.237Z,2.90
2022-09-23T12:43:29.033Z,2.80
2022-09-23T12:44:29.033Z,2.90
2022-09-23T12:45:29.035Z,2.90
2022-09-23T12:46:29.034Z,2.80
2022-09-23T12:47:29.031Z,2.70
2022-09-23T12:48:29.029Z,2.80
2022-09-23T12:49:29.027Z,3.00
2022-09-23T12:50:29.029Z,2.90
2022-09-23T12:51:29.046Z,2.80
2022-09-23T12:52:29.025Z,2.60
2022-09-23T12:53:29.023Z,2.80
2022-09-23T12:54:29.022Z,3.00
2022-09-23T12:55:29.021Z,3.00
2022-09-23T12:56:29.018Z,2.70
2022-09-23T12:57:29.143Z,2.70
2022-09-23T12:58:29.021Z,2.40
2022-09-23T12:59:29.015Z,2.50
2022-09-23T13:00:34.061Z,2.70
2022-09-23T13:01:29.145Z,2.70
2022-09-23T13:02:29.041Z,2.90
2022-09-23T13:03:29.010Z,2.90
2022-09-23T13:04:29.011Z,2.60
2022-09-23T13:05:29.213Z,2.60
2022-09-23T13:06:29.009Z,2.90
2022-09-23T13:07:29.071Z,2.70
2022-09-23T13:08:29.007Z,2.70
2022-09-23T13:09:29.003Z,2.70
2022-09-23T13:10:29.004Z,2.70
2022-09-23T13:11:29.004Z,2.60
2022-09-23T13:12:29.003Z,2.50
2022-09-23T13:13:29.005Z,2.50
2022-09-23T13:14:29.000Z,2.60
2022-09-23T13:15:29.005Z,2.60
2022-09-23T13:16:29.112Z,2.50
2022-09-23T13:17:28.994Z,2.90
2022-09-23T13:18:28.994Z,2.40
2022-09-23T13:19:28.994Z,2.50
2022-09-23T13:20:28.992Z,2.70
2022-09-23T13:21:28.990Z,2.50
2022-09-23T13:22:28.994Z,2.50
2022-09-23T13:23:29.006Z,2.90
2022-09-23T13:24:28.995Z,2.90